createdAt,value
2022-08-16T00:01:40.823Z,99952.97
2022-08-16T00:06:44.030Z,99960.66
2022-08-16T00:11:45.979Z,99951.91
2022-08-16T00:17:05.553Z,99956.38
2022-08-16T00:22:13.659Z,99958.00
2022-08-16T00:27:17.368Z,99953.56
2022-08-16T00:32:19.280Z,99949.44
2022-08-16T00:37:24.504Z,99958.53
2022-08-16T00:42:30.227Z,99954.88
2022-08-16T00:47:33.410Z,99956.91
2022-08-16T00:52:35.931Z,99958.53
2022-08-16T00:57:58.587Z,99971.69
2022-08-16T01:03:00.985Z,99977.53
2022-08-16T01:08:35.142Z,99991.53
2022-08-16T01:13:26.670Z,99984.06
2022-08-16T01:18:40.508Z,99988.66
2022-08-16T01:23:58.410Z,99993.53
2022-08-16T01:29:06.619Z,99984.72
2022-08-16T01:34:25.321Z,99981.91
2022-08-16T01:39:29.393Z,99981.19
2022-08-16T01:44:37.825Z,99975.75
2022-08-16T01:50:40.660Z,99980.84
2022-08-16T01:55:04.442Z,99992.88
2022-08-16T02:00:19.277Z,99996.16
2022-08-16T02:05:23.500Z,99999.47
2022-08-16T02:10:25.884Z,100007.13
2022-08-16T02:15:28.891Z,100009.59
2022-08-16T02:20:33.153Z,100006.28
2022-08-16T02:25:52.530Z,100015.50
2022-08-16T02:30:57.929Z,100012.06
2022-08-16T02:36:00.075Z,100006.88
2022-08-16T02:41:09.753Z,100007.47
2022-08-16T02:46:13.866Z,100011.84
2022-08-16T02:51:17.054Z,100010.06
2022-08-16T02:56:20.732Z,100015.16
2022-08-16T03:01:36.734Z,100009.09
2022-08-16T03:06:47.945Z,100011.06
2022-08-16T03:12:10.086Z,100009.41
2022-08-16T03:17:18.538Z,100002.44
2022-08-16T03:22:29.001Z,100006.88
2022-08-16T03:27:33.951Z,100016.88
2022-08-16T03:32:38.604Z,100015.38
2022-08-16T03:38:01.803Z,100006.84
2022-08-16T03:43:20.792Z,100000.88
2022-08-16T03:48:36.810Z,100010.84
2022-08-16T03:54:01.353Z,100006.72
2022-08-16T03:59:05.874Z,100013.13
2022-08-16T04:04:32.426Z,100018.13
2022-08-16T04:09:35.180Z,100019.03
2022-08-16T04:14:37.686Z,100012.97
2022-08-16T04:19:51.651Z,100026.06
2022-08-16T04:24:59.363Z,100033.19
2022-08-16T04:30:13.477Z,100028.41
2022-08-16T04:35:34.729Z,100028.41
2022-08-16T04:40:36.785Z,100029.09
2022-08-16T04:45:39.768Z,100038.69
2022-08-16T04:50:49.198Z,100045.66
2022-08-16T04:55:54.845Z,100042.25
2022-08-16T05:01:00.516Z,100049.34
2022-08-16T05:06:05.199Z,100050.44
2022-08-16T05:11:10.080Z,100050.50
2022-08-16T05:16:20.021Z,100057.50
2022-08-16T05:21:28.362Z,100067.63
2022-08-16T05:26:40.782Z,100070.75
2022-08-16T05:31:48.224Z,100064.34
2022-08-16T05:36:57.302Z,100074.63
2022-08-16T05:42:05.965Z,100083.16
2022-08-16T05:47:08.391Z,100083.09
2022-08-16T05:52:13.809Z,100090.78
2022-08-16T05:57:20.655Z,100092.06
2022-08-16T06:02:29.000Z,100094.53
2022-08-16T06:07:32.418Z,100102.00
2022-08-16T06:12:55.850Z,100111.28
2022-08-16T06:17:59.188Z,100110.78
2022-08-16T06:23:11.729Z,100109.50
2022-08-16T06:28:36.443Z,100113.28
2022-08-16T06:33:44.573Z,100123.38
2022-08-16T06:38:52.290Z,100129.00
2022-08-16T06:44:20.700Z,100137.41
2022-08-16T06:49:24.324Z,100135.25
2022-08-16T06:54:26.009Z,100150.56
2022-08-16T06:59:29.083Z,100153.31
2022-08-16T07:04:37.094Z,100158.25
2022-08-16T07:09:54.988Z,100164.91
2022-08-16T07:15:00.733Z,100158.50
2022-08-16T07:20:35.070Z,100166.81
2022-08-16T07:25:31.242Z,100163.09
2022-08-16T07:30:39.420Z,100162.63
2022-08-16T07:36:07.456Z,100180.44
2022-08-16T07:41:15.086Z,100178.09
2022-08-16T07:46:37.570Z,100171.78
2022-08-16T07:51:49.883Z,100176.78
2022-08-16T07:56:57.781Z,100167.34
2022-08-16T08:02:00.739Z,100182.84
2022-08-16T08:07:02.589Z,100183.78
2022-08-16T08:12:31.427Z,100178.78
2022-08-16T08:17:42.151Z,100185.28
2022-08-16T08:22:48.965Z,100190.44
2022-08-16T08:27:51.221Z,100189.47
2022-08-16T08:33:01.179Z,100193.31
2022-08-16T08:38:16.912Z,100185.44
2022-08-16T08:43:41.886Z,100185.72
2022-08-16T08:48:46.368Z,100196.91
2022-08-16T08:54:07.052Z,100191.53
2022-08-16T08:59:20.490Z,100187.00
2022-08-16T09:04:26.976Z,100190.63
2022-08-16T09:09:33.554Z,100187.41
2022-08-16T09:14:38.611Z,100194.72
2022-08-16T09:19:41.289Z,100198.28
2022-08-16T09:24:51.678Z,100197.06
2022-08-16T09:30:00.083Z,100198.06
2022-08-16T09:35:02.863Z,100195.66
2022-08-16T09:40:31.949Z,100193.75
2022-08-16T09:45:28.997Z,100199.16
2022-08-16T09:50:36.743Z,100190.94
2022-08-16T09:55:44.633Z,100186.19
2022-08-16T10:00:46.625Z,100190.53
2022-08-16T10:05:48.816Z,100182.41
2022-08-16T10:11:09.568Z,100192.25
2022-08-16T10:21:20.254Z,100194.38
2022-08-16T10:27:19.944Z,100201.59
2022-08-16T10:31:46.704Z,100197.97
2022-08-16T10:36:55.641Z,100198.22
2022-08-16T10:41:57.313Z,100205.66
2022-08-16T10:47:00.757Z,100202.13
2022-08-16T10:52:18.875Z,100208.47
2022-08-16T10:57:24.646Z,100206.25
2022-08-16T11:03:37.432Z,100199.97
2022-08-16T11:07:53.461Z,100201.16
2022-08-16T11:12:56.439Z,100201.97
2022-08-16T11:23:20.045Z,100204.75
2022-08-16T11:33:52.735Z,100196.28
2022-08-16T11:38:57.079Z,100207.25
2022-08-16T11:44:00.127Z,100197.94
2022-08-16T11:49:08.695Z,100209.53
2022-08-16T11:54:20.499Z,100219.69
2022-08-16T11:59:24.457Z,100207.88
2022-08-16T12:04:31.229Z,100205.81
2022-08-16T12:09:32.980Z,100201.97
2022-08-16T12:14:35.317Z,100208.47
2022-08-16T12:19:38.391Z,100197.72
2022-08-16T12:24:40.052Z,100210.88
2022-08-16T12:29:41.735Z,100202.69
2022-08-16T12:34:48.019Z,100213.25
2022-08-16T12:39:56.047Z,100211.22
2022-08-16T12:44:57.856Z,100210.56
2022-08-16T12:50:00.039Z,100207.41
2022-08-16T12:55:02.190Z,100199.09
2022-08-16T13:00:26.896Z,100205.06
2022-08-16T13:05:45.065Z,100199.53
2022-08-16T13:10:57.282Z,100201.06
2022-08-16T13:16:02.215Z,100188.16
2022-08-16T13:21:06.755Z,100177.34
2022-08-16T13:26:08.443Z,100175.88
2022-08-16T13:31:11.207Z,100175.97
2022-08-16T13:36:38.928Z,100179.41
2022-08-16T13:41:38.978Z,100188.44
2022-08-16T13:46:41.686Z,100185.47
2022-08-16T13:51:43.876Z,100195.34
2022-08-16T13:56:45.978Z,100189.72
2022-08-16T14:01:54.968Z,100179.38
2022-08-16T14:06:58.275Z,100180.34
2022-08-16T14:12:00.671Z,100181.16
2022-08-16T14:17:02.650Z,100175.00
2022-08-16T14:22:14.572Z,100177.22
2022-08-16T14:27:21.936Z,100161.66
2022-08-16T14:32:32.518Z,100172.75
2022-08-16T14:37:36.006Z,100173.97
2022-08-16T14:42:37.740Z,100161.88
2022-08-16T14:47:39.427Z,100165.75
2022-08-16T14:53:03.657Z,100159.88
2022-08-16T14:58:05.688Z,100161.69
2022-08-16T15:03:09.932Z,100164.72
2022-08-16T15:08:11.796Z,100168.00
2022-08-16T15:13:13.515Z,100164.06
2022-08-16T15:18:23.440Z,100166.63
2022-08-16T15:23:31.510Z,100169.91
2022-08-16T15:28:38.720Z,100181.09
2022-08-16T15:33:56.445Z,100173.59
2022-08-16T15:39:06.879Z,100174.22
2022-08-16T15:44:23.611Z,100175.22
2022-08-16T15:49:37.498Z,100171.94
2022-08-16T15:54:52.415Z,100179.31
2022-08-16T15:59:57.749Z,100181.09
2022-08-16T16:05:17.041Z,100185.72
2022-08-16T16:10:18.807Z,100193.66
2022-08-16T16:15:23.251Z,100180.25
2022-08-16T16:20:27.921Z,100190.00
2022-08-16T16:25:30.059Z,100179.41
2022-08-16T16:30:34.498Z,100185.47
2022-08-16T16:35:46.810Z,100186.78
2022-08-16T16:40:53.945Z,100194.28
2022-08-16T16:45:56.271Z,100188.75
2022-08-16T16:50:58.345Z,100191.88
2022-08-16T16:56:00.002Z,100199.22
2022-08-16T17:01:01.745Z,100196.34
2022-08-16T17:06:09.093Z,100207.63
2022-08-16T17:11:13.836Z,100205.78
2022-08-16T17:16:18.950Z,100209.75
2022-08-16T17:21:21.607Z,100200.44
2022-08-16T17:26:29.529Z,100206.13
2022-08-16T17:31:40.865Z,100212.09
2022-08-16T17:36:50.471Z,100213.19
2022-08-16T17:41:57.065Z,100222.00
2022-08-16T17:46:58.728Z,100220.84
2022-08-16T17:52:00.496Z,100225.31
2022-08-16T17:57:02.184Z,100232.88
2022-08-16T18:02:42.381Z,100241.09
2022-08-16T18:07:26.623Z,100242.97
2022-08-16T18:12:44.502Z,100247.13
2022-08-16T18:17:53.029Z,100239.66
2022-08-16T18:22:54.742Z,100250.13
2022-08-16T18:27:56.409Z,100257.59
2022-08-16T18:32:58.085Z,100259.41
2022-08-16T18:37:59.750Z,100263.22
2022-08-16T18:43:06.360Z,100274.63
2022-08-16T18:48:08.465Z,100270.78
2022-08-16T18:53:11.564Z,100280.78
2022-08-16T18:58:14.187Z,100288.25
2022-08-16T19:03:22.065Z,100293.41
2022-08-16T19:08:23.760Z,100292.75
2022-08-16T19:13:26.726Z,100301.53
2022-08-16T19:18:28.716Z,100311.63
2022-08-16T19:23:38.861Z,100308.97
2022-08-16T19:28:51.021Z,100311.06
2022-08-16T19:34:01.420Z,100329.97
2022-08-16T19:39:06.082Z,100337.72
2022-08-16T19:44:07.793Z,100338.34
2022-08-16T19:49:09.524Z,100340.88
2022-08-16T19:54:17.848Z,100342.03
2022-08-16T19:59:22.415Z,100341.91
2022-08-16T20:04:41.541Z,100344.59
2022-08-16T20:09:43.238Z,100349.75
2022-08-16T20:14:44.964Z,100353.44
2022-08-16T20:19:46.767Z,100366.00
2022-08-16T20:24:49.255Z,100362.41
2022-08-16T20:29:50.931Z,100370.34
2022-08-16T20:34:53.695Z,100366.88
2022-08-16T20:40:28.231Z,100368.28
2022-08-16T20:45:17.048Z,100370.59
2022-08-16T20:50:18.883Z,100378.28
2022-08-16T20:55:20.551Z,100376.31
2022-08-16T21:00:22.351Z,100383.22
2022-08-16T21:05:31.204Z,100382.22
2022-08-16T21:10:33.668Z,100387.84
2022-08-16T21:15:36.049Z,100390.69
2022-08-16T21:20:37.853Z,100389.47
2022-08-16T21:25:46.657Z,100387.13
2022-08-16T21:31:00.259Z,100393.81
2022-08-16T21:36:01.949Z,100397.81
2022-08-16T21:41:04.272Z,100401.91
2022-08-16T21:46:06.936Z,100409.09
2022-08-16T21:51:11.350Z,100401.50
2022-08-16T21:56:17.167Z,100408.09
2022-08-16T22:01:19.157Z,100407.56
2022-08-16T22:06:20.849Z,100415.31
2022-08-16T22:11:23.361Z,100415.69
2022-08-16T22:16:25.807Z,100418.84
2022-08-16T22:21:27.478Z,100426.53
2022-08-16T22:26:31.831Z,100422.88
2022-08-16T22:31:34.443Z,100429.78
2022-08-16T22:36:36.288Z,100425.72
2022-08-16T22:41:38.295Z,100433.25
2022-08-16T22:46:40.013Z,100429.72
2022-08-16T22:51:41.858Z,100429.09
2022-08-16T22:56:44.392Z,100429.88
2022-08-16T23:01:46.103Z,100434.63
2022-08-16T23:06:47.829Z,100421.59
2022-08-16T23:11:49.498Z,100423.00
2022-08-16T23:16:51.153Z,100425.69
2022-08-16T23:21:53.060Z,100423.25
2022-08-16T23:26:54.738Z,100427.00
2022-08-16T23:31:58.376Z,100423.66
2022-08-16T23:37:00.155Z,100426.44
2022-08-16T23:42:01.913Z,100418.53
2022-08-16T23:47:05.011Z,100413.38
2022-08-16T23:52:07.700Z,100418.63
2022-08-16T23:57:09.365Z,100411.69
